LOWS/SZG METAR and TAF weather

Enter ICAO airport designator
Station Type Date Time Source
LOWS METAR 2020/09/20 14:20 UTC NOAA

LOWS 201420Z 01006KT 9999 FEW060 22/12 Q1014 NOSIG


Station Type Date Time Source
LOWS Decoded METAR 2020/09/20 14:20 UTC NOAA

Salzburg-Flughafen, Austria (LOWS) 47-48N 013-00E 450M
Sep 20, 2020 - 10:20 AM EDT / 2020.09.20 1420 UTC
Wind: from the N (010 degrees) at 7 MPH (6 KT):0
Visibility: greater than 7 mile(s):0
Sky conditions: mostly clear
Temperature: 71 F (22 C)
Dew Point: 53 F (12 C)
Relative Humidity: 53%
Pressure (altimeter): 29.94 in. Hg (1014 hPa)
ob: LOWS 201420Z 01006KT 9999 FEW060 22/12 Q1014 NOSIG
cycle: 14

Station Type Date Time Source
LOWS TAF 2020/09/20 12:21 UTC NOAA

TAF LOWS 201115Z 2012/2112 34006KT 9999 FEW050 TX22/2112Z TN12/2105Z
BECMG 2017/2019 15004KT CAVOK
TEMPO 2100/2108 VRB02KT 1200 BCFG SCT005 PROB40
TEMPO 2102/2107 0200 FG BKN002
BECMG 2108/2110 34006KT 9999 FEW050

Example: see airport list